Perryville, AR

5:27 AM CDT on May 26, 2015 (GMT -0500)
Adams | | Change Station
CLOSE
Current Station
Airport
Location: Little Rock,
Elevation: 259 ft
Nearby Weather Stations

Elev 259 ft 34.73 °N, 92.24 °W | Updated 6 minutes ago

Overcast
Overcast
63 °F
Feels Like 63 °F
N
9
Wind Variable Wind from SW

Today
High -- | Low -- °F
--% Chance of Precip.
Yesterday
High -- | Low -- °F
Precip. -- in
6:01 AM 8:16 PM
First Quarter, 57% visible
Pressure 29.96 in
Visibility 10.0 miles
Clouds Mostly Cloudy 1300 ft
Overcast 10000 ft
Dew Point 59 °F
Humidity 88%
Rainfall 0.04 in
Snow Depth Not available.
UV 0 out of 12
Pollen 2.90 out of 12
Air Quality Not available.
Flu Activity No Activity
SPECI KLIT 261021Z 22008KT 10SM BKN013 OVC100 17/15 A2996 RMK AO2 $

More Conditions Fewer Conditions

Pressure 29.96 in
Visibility 10.0 miles
Clouds Mostly Cloudy 1300 ft
Overcast 10000 ft
Dew Point 59 °F
Humidity 88%
Rainfall 0.04 in
Snow Depth Not available.
UV 0 out of 12
Pollen 2.90 out of 12
Air Quality Not available.
Flu Activity No Activity
SPECI KLIT 261021Z 22008KT 10SM BKN013 OVC100 17/15 A2996 RMK AO2 $

More Conditions Fewer Conditions

10-Day Weather Forecast

Almanac

Astronomy

May. 26, 2015 Rise Set
Actual Time
Civil Twilight
Nautical Twilight
Astronomical Twilight
Moon
Length of Visible Light
Length of Day
Tomorrow will be .
, % of the Moon is Illuminated

Today's Extremes

State Highs State Lows

Community

WunderPhotos

Upload Photos

1,824,305 photos uploaded!

WunderBlogs® & News

Nearby

Air Quality

  Air Quality AQ Index Pollutant
Not available.

Snow Depth

Station Depth Elevation

Earthquake Activity

City Distance Mag. Time & Date
Minimum magnitude displayed is 2.5.

Coastal Water Temperatures

Place Temperature

Stations

Nearby Weather Stations

Station Location Temp. Windchill Dew Point Humidity Wind Precip. Elev Updated Type